Weather at General WM J Fox Airfield

Public forecast

Using degrees Fahrenheit for public forecast. Weather courtesy of forecast.io.

Current aviation weather report (METAR) for General WM J Fox Airfield

Retrieved 2020/09/18 05:56 UTC (58 minutes ago):

KWJF 180556Z AUTO 00000KT 9SM OVC065 20/01 A3000 RMK AO2 SLP141 T02000006 10350 20194 51008

Aviation forecast (TAF) for General WM J Fox Airfield

Retrieved 2020/09/18 06:30 UTC (24 minutes ago):

TAF KWJF 180527Z 1806/1906 26008KT P6SM BKN100 FM181000 VRB03KT P6SM BKN150 FM181800 25008KT P6SM SCT150 FM182100 24012G18KT P6SM SCT150 FM190000 24015G25KT P6SM SCT250 FM190200 24012KT P6SM SCT150